Time;durP1;ratioP1;P1;durP2;ratioP2;P2;SDS_P1;SDS_P2;PMS_P1;PMS_P2;Temp;Humidity;BMP_temperature;BMP_pressure;BME280_temperature;BME280_humidity;BME280_pressure;Samples;Min_cycle;Max_cycle;Signal;HPM_P1;HPM_P2
2023/06/23 00:01:33;;;;;;;13.60;7.67;;;17.00;99.90;;;;;;5073420;28;20544;-46
2023/06/23 00:03:59;;;;;;;11.00;7.17;;;17.00;99.90;;;;;;5073339;28;20667;-46
2023/06/23 00:06:25;;;;;;;12.27;7.03;;;16.90;99.90;;;;;;5073180;28;20179;-47
2023/06/23 00:08:51;;;;;;;7.77;6.50;;;17.00;99.90;;;;;;5073344;28;20190;-47
2023/06/23 00:11:17;;;;;;;9.27;6.27;;;17.00;99.90;;;;;;5073318;28;20546;-46
2023/06/23 00:13:42;;;;;;;8.97;6.13;;;16.90;99.90;;;;;;5073150;28;20180;-46
2023/06/23 00:16:08;;;;;;;11.87;6.03;;;16.90;99.90;;;;;;5073025;28;20180;-46
2023/06/23 00:18:35;;;;;;;8.07;5.67;;;16.80;99.90;;;;;;5072982;28;20176;-48
2023/06/23 00:21:05;;;;;;;7.33;5.90;;;16.80;99.90;;;;;;5072961;28;20178;-47
2023/06/23 00:23:31;;;;;;;11.43;5.03;;;16.80;99.90;;;;;;5072904;28;20179;-47
2023/06/23 00:25:57;;;;;;;8.93;5.73;;;16.70;99.90;;;;;;5074447;28;20183;-46
2023/06/23 00:28:24;;;;;;;8.37;5.40;;;16.60;99.90;;;;;;5076840;28;20210;-47
2023/06/23 00:30:53;;;;;;;11.60;5.20;;;16.60;99.90;;;;;;5077085;28;20611;-47
2023/06/23 00:33:19;;;;;;;6.50;4.90;;;16.60;99.90;;;;;;5076767;28;20527;-47
2023/06/23 00:35:45;;;;;;;8.00;4.80;;;16.50;99.90;;;;;;5076850;28;20218;-47
2023/06/23 00:38:11;;;;;;;8.13;4.87;;;16.50;99.90;;;;;;5076666;28;20590;-48
2023/06/23 00:40:37;;;;;;;8.77;4.60;;;16.50;99.90;;;;;;5076644;28;20203;-47
2023/06/23 00:43:02;;;;;;;9.30;4.93;;;16.50;99.90;;;;;;5076878;28;20536;-48
2023/06/23 00:45:28;;;;;;;7.43;4.93;;;16.40;99.90;;;;;;5076459;28;20196;-46
2023/06/23 00:47:55;;;;;;;7.03;4.20;;;16.40;99.90;;;;;;5058607;28;20294;-47
2023/06/23 00:50:23;;;;;;;7.40;4.90;;;16.40;99.90;;;;;;5076404;28;20183;-47
2023/06/23 00:52:50;;;;;;;9.20;5.10;;;16.30;99.90;;;;;;5076427;28;20324;-47
2023/06/23 00:55:20;;;;;;;9.90;4.83;;;16.30;99.90;;;;;;5076238;28;20211;-46
2023/06/23 00:57:47;;;;;;;6.73;4.40;;;16.30;99.90;;;;;;5076617;28;20172;-47
2023/06/23 01:00:23;;;;;;;7.37;5.07;;;16.30;99.90;;;;;;5076431;28;20178;-47
2023/06/23 01:02:54;;;;;;;8.77;4.73;;;16.30;99.90;;;;;;5076555;28;20164;-47
2023/06/23 01:05:23;;;;;;;11.87;5.07;;;16.20;99.90;;;;;;5076595;28;20223;-46
2023/06/23 01:08:11;;;;;;;10.23;4.47;;;16.20;99.90;;;;;;5076327;28;20593;-46
2023/06/23 01:10:44;;;;;;;8.83;4.67;;;16.20;99.90;;;;;;5076419;28;20207;-47
2023/06/23 01:13:34;;;;;;;8.37;5.00;;;16.20;99.90;;;;;;5076329;28;20163;-47
2023/06/23 01:16:16;;;;;;;10.00;4.93;;;16.10;99.90;;;;;;5076337;28;20632;-47
2023/06/23 01:19:09;;;;;;;9.07;5.20;;;16.20;99.90;;;;;;5058017;28;20195;-46
2023/06/23 01:21:57;;;;;;;11.40;5.00;;;16.10;99.90;;;;;;5075898;28;20632;-46
2023/06/23 01:24:50;;;;;;;8.47;5.20;;;16.10;99.90;;;;;;5075955;28;20218;-46
2023/06/23 01:27:25;;;;;;;9.67;5.00;;;16.00;99.90;;;;;;5076102;28;20169;-47
2023/06/23 01:29:54;;;;;;;10.70;5.23;;;16.00;99.90;;;;;;5076019;28;20255;-46
2023/06/23 01:32:27;;;;;;;9.77;5.33;;;16.00;99.90;;;;;;5075699;28;20168;-46
2023/06/23 01:34:58;;;;;;;10.40;5.40;;;16.00;99.90;;;;;;5075582;28;20270;-46
2023/06/23 01:37:29;;;;;;;14.10;5.80;;;15.90;99.90;;;;;;5075079;28;20213;-46
2023/06/23 01:39:58;;;;;;;12.27;5.40;;;15.90;99.90;;;;;;5075663;28;20269;-47
2023/06/23 01:42:30;;;;;;;8.17;5.70;;;15.90;99.90;;;;;;5075497;28;20259;-47
2023/06/23 01:45:00;;;;;;;7.30;5.60;;;15.90;99.90;;;;;;5057433;28;20675;-46
2023/06/23 01:47:32;;;;;;;10.00;6.23;;;15.90;99.90;;;;;;5075720;28;20187;-44
2023/06/23 01:50:00;;;;;;;10.67;6.13;;;15.90;99.90;;;;;;5075633;28;20243;-46
2023/06/23 01:52:29;;;;;;;9.97;6.17;;;15.80;99.90;;;;;;5075350;28;20175;-47
2023/06/23 01:54:56;;;;;;;9.27;6.70;;;15.80;99.90;;;;;;5074973;28;20219;-46
2023/06/23 01:57:24;;;;;;;9.63;7.33;;;15.80;99.90;;;;;;5075186;28;20171;-47
2023/06/23 01:59:52;;;;;;;10.93;6.73;;;15.80;99.90;;;;;;5075530;28;20176;-46
2023/06/23 02:02:19;;;;;;;10.33;7.50;;;15.80;99.90;;;;;;5075869;28;20203;-47
2023/06/23 02:04:48;;;;;;;12.67;7.60;;;15.70;99.90;;;;;;5075690;28;20548;-46
2023/06/23 02:07:16;;;;;;;12.03;8.07;;;15.80;99.90;;;;;;5075054;28;20178;-47
2023/06/23 02:09:42;;;;;;;13.67;8.13;;;15.70;99.90;;;;;;5075071;28;20183;-47
2023/06/23 02:12:09;;;;;;;16.47;8.00;;;15.70;99.90;;;;;;5074944;28;20310;-46
2023/06/23 02:14:37;;;;;;;18.27;8.00;;;15.70;99.90;;;;;;5074674;28;20214;-47
2023/06/23 02:17:10;;;;;;;10.80;7.83;;;15.70;99.90;;;;;;5074846;28;20195;-45
2023/06/23 02:19:38;;;;;;;10.73;8.30;;;15.70;99.90;;;;;;5075398;28;20577;-45
2023/06/23 02:22:11;;;;;;;17.80;8.20;;;15.70;99.90;;;;;;5074989;28;20184;-45
2023/06/23 02:24:38;;;;;;;10.33;7.90;;;15.70;99.90;;;;;;5074764;28;20676;-46
2023/06/23 02:27:05;;;;;;;13.57;8.80;;;15.70;99.90;;;;;;5075178;28;20164;-47
2023/06/23 02:29:37;;;;;;;10.00;7.90;;;15.70;99.90;;;;;;5074813;28;20180;-46
2023/06/23 02:32:03;;;;;;;12.47;8.43;;;15.70;99.90;;;;;;5074553;28;20168;-45
2023/06/23 02:34:30;;;;;;;15.13;7.93;;;15.70;99.90;;;;;;5074541;28;20294;-47
2023/06/23 02:36:59;;;;;;;10.30;7.70;;;15.70;99.90;;;;;;5056612;28;20182;-47
2023/06/23 02:39:31;;;;;;;13.30;8.47;;;15.70;99.90;;;;;;5074539;28;20254;-45
2023/06/23 02:41:59;;;;;;;12.97;8.47;;;15.60;99.90;;;;;;5074596;28;20332;-46
2023/06/23 02:44:38;;;;;;;17.60;8.97;;;15.70;99.90;;;;;;5074261;28;20199;-45
2023/06/23 02:47:11;;;;;;;15.07;8.90;;;15.60;99.90;;;;;;5074445;28;20175;-46
2023/06/23 02:49:38;;;;;;;12.73;9.13;;;15.60;99.90;;;;;;5074692;28;20526;-45
2023/06/23 02:52:05;;;;;;;11.83;9.43;;;15.60;99.90;;;;;;5074127;28;20183;-46
2023/06/23 02:54:36;;;;;;;18.63;9.80;;;15.50;99.90;;;;;;5073837;28;20211;-44
2023/06/23 02:57:03;;;;;;;16.93;10.47;;;15.50;99.90;;;;;;5074281;28;20160;-46
2023/06/23 02:59:30;;;;;;;16.03;9.90;;;15.50;99.90;;;;;;5074247;28;20167;-47
2023/06/23 03:01:59;;;;;;;14.23;10.40;;;15.50;99.90;;;;;;5073918;28;20167;-47
2023/06/23 03:04:25;;;;;;;14.93;9.90;;;15.50;99.90;;;;;;5073878;28;20626;-47
2023/06/23 03:06:51;;;;;;;15.27;10.33;;;15.50;99.90;;;;;;5074113;28;20272;-47
2023/06/23 03:09:17;;;;;;;18.83;10.77;;;15.40;99.90;;;;;;5073788;28;20640;-44
2023/06/23 03:11:43;;;;;;;16.07;11.33;;;15.40;99.90;;;;;;5074106;28;20164;-47
2023/06/23 03:14:08;;;;;;;18.37;10.63;;;15.40;99.90;;;;;;5073768;28;20199;-46
2023/06/23 03:16:51;;;;;;;16.00;11.47;;;15.40;99.90;;;;;;5073930;28;20175;-45
2023/06/23 03:19:26;;;;;;;17.40;11.43;;;15.30;99.90;;;;;;5074805;28;20175;-47
2023/06/23 03:22:10;;;;;;;15.40;11.53;;;15.40;99.90;;;;;;5073945;28;20238;-47
2023/06/23 03:24:39;;;;;;;19.17;11.03;;;15.30;99.90;;;;;;5073735;28;20191;-47
2023/06/23 03:27:08;;;;;;;18.97;11.77;;;15.30;99.90;;;;;;5073875;28;20508;-46
2023/06/23 03:29:53;;;;;;;18.10;11.87;;;15.30;99.90;;;;;;5073593;28;20262;-47
2023/06/23 03:32:28;;;;;;;15.37;11.37;;;15.30;99.90;;;;;;5073866;28;20630;-47
2023/06/23 03:35:02;;;;;;;21.07;12.63;;;15.20;99.90;;;;;;5073451;28;20207;-47
2023/06/23 03:37:31;;;;;;;21.80;11.47;;;15.20;99.90;;;;;;5074023;28;20155;-46
2023/06/23 03:40:00;;;;;;;16.60;11.27;;;15.20;99.90;;;;;;5073696;28;20188;-45
2023/06/23 03:42:27;;;;;;;20.80;11.23;;;15.20;99.90;;;;;;5073636;28;20210;-47
2023/06/23 03:44:59;;;;;;;19.27;11.73;;;15.20;99.90;;;;;;5073494;28;20188;-45
2023/06/23 03:47:28;;;;;;;17.67;12.47;;;15.20;99.90;;;;;;5073702;28;20175;-46
2023/06/23 03:50:03;;;;;;;14.80;11.23;;;15.20;99.90;;;;;;5073564;28;20540;-46
2023/06/23 03:52:29;;;;;;;20.50;12.27;;;15.20;99.90;;;;;;5055402;28;20210;-45
2023/06/23 03:54:56;;;;;;;19.50;12.40;;;15.20;99.90;;;;;;5073121;28;20256;-45
2023/06/23 03:57:27;;;;;;;16.27;12.27;;;15.20;99.90;;;;;;5073309;28;20175;-46
2023/06/23 03:59:55;;;;;;;18.40;12.53;;;15.20;99.90;;;;;;5073923;28;20162;-45
2023/06/23 04:02:22;;;;;;;18.93;12.43;;;15.20;99.90;;;;;;5079597;28;20520;-46
2023/06/23 04:04:51;;;;;;;19.70;12.23;;;15.20;99.90;;;;;;5079734;28;20207;-47
2023/06/23 04:07:18;;;;;;;18.17;12.20;;;15.30;99.90;;;;;;5079867;28;20179;-48
2023/06/23 04:09:47;;;;;;;16.93;11.53;;;15.20;99.90;;;;;;5080039;28;20206;-46
2023/06/23 04:12:15;;;;;;;19.27;13.37;;;15.20;99.90;;;;;;5079755;28;20173;-47
2023/06/23 04:14:44;;;;;;;19.63;11.97;;;15.20;99.90;;;;;;5079624;28;20277;-45
2023/06/23 04:17:12;;;;;;;20.17;12.63;;;15.20;99.90;;;;;;5080474;28;20179;-45
2023/06/23 04:19:41;;;;;;;20.87;12.90;;;15.30;99.90;;;;;;5079714;28;20652;-47
2023/06/23 04:22:08;;;;;;;17.83;12.27;;;15.30;99.90;;;;;;5079745;28;20229;-47
2023/06/23 04:24:38;;;;;;;20.53;12.70;;;15.20;99.90;;;;;;5061654;28;20202;-45
2023/06/23 04:27:05;;;;;;;17.60;11.73;;;15.30;99.90;;;;;;5079982;28;20202;-44
2023/06/23 04:29:32;;;;;;;18.17;12.33;;;15.30;99.90;;;;;;5080151;28;20172;-45
2023/06/23 04:31:58;;;;;;;19.73;13.10;;;15.30;99.90;;;;;;5079605;28;20183;-47
2023/06/23 04:34:24;;;;;;;22.03;14.57;;;15.30;99.90;;;;;;5079729;28;20257;-46
2023/06/23 04:37:04;;;;;;;17.30;12.90;;;15.40;99.90;;;;;;5079542;28;20175;-47
2023/06/23 04:39:43;;;;;;;21.37;13.53;;;15.40;99.90;;;;;;5061592;28;20670;-45
2023/06/23 04:42:12;;;;;;;23.87;12.80;;;15.40;99.90;;;;;;5079817;28;20167;-47
2023/06/23 04:44:43;;;;;;;18.40;13.53;;;15.50;99.90;;;;;;5079728;28;20191;-46
2023/06/23 04:47:11;;;;;;;18.03;12.87;;;15.50;99.90;;;;;;5079706;28;20279;-48
2023/06/23 04:49:39;;;;;;;19.07;13.63;;;15.50;99.90;;;;;;5079444;28;20194;-46
2023/06/23 04:52:07;;;;;;;22.27;13.83;;;15.50;99.90;;;;;;5079486;28;20190;-46
2023/06/23 04:54:40;;;;;;;17.70;13.60;;;15.50;99.90;;;;;;5079135;28;20211;-45
2023/06/23 04:57:14;;;;;;;17.63;12.90;;;15.50;99.90;;;;;;5079990;28;20198;-47
2023/06/23 04:59:41;;;;;;;21.17;13.50;;;15.60;99.90;;;;;;5079657;28;20171;-46
2023/06/23 05:02:10;;;;;;;17.33;12.93;;;15.60;99.90;;;;;;5079419;28;20186;-45
2023/06/23 05:04:38;;;;;;;20.70;13.33;;;15.60;99.90;;;;;;5079482;28;20255;-46
2023/06/23 05:07:04;;;;;;;17.47;13.37;;;15.60;99.90;;;;;;5079573;28;20184;-45
2023/06/23 05:09:32;;;;;;;18.57;13.67;;;15.70;99.90;;;;;;5079172;28;20197;-48
2023/06/23 05:12:00;;;;;;;22.07;13.57;;;15.80;99.90;;;;;;5077322;28;20197;-49
2023/06/23 05:14:28;;;;;;;26.63;14.13;;;15.80;99.90;;;;;;5076265;28;20684;-47
2023/06/23 05:16:59;;;;;;;20.00;13.80;;;15.80;99.90;;;;;;5076058;28;20637;-47
2023/06/23 05:19:28;;;;;;;21.90;14.27;;;15.90;99.90;;;;;;5076308;28;20363;-47
2023/06/23 05:21:55;;;;;;;19.37;14.00;;;15.90;99.90;;;;;;5075983;28;20176;-45
2023/06/23 05:24:25;;;;;;;18.60;14.73;;;16.00;99.90;;;;;;5075802;28;20207;-46
2023/06/23 05:26:55;;;;;;;19.70;14.10;;;16.00;99.90;;;;;;5075802;28;20184;-47
2023/06/23 05:29:22;;;;;;;19.03;13.87;;;16.00;99.90;;;;;;5075823;28;20679;-47
2023/06/23 05:31:49;;;;;;;22.03;14.73;;;16.10;99.90;;;;;;5075852;28;20233;-47
2023/06/23 05:34:17;;;;;;;20.87;14.80;;;16.10;99.90;;;;;;5075629;28;20245;-47
2023/06/23 05:36:44;;;;;;;21.43;14.93;;;16.20;99.90;;;;;;5075998;28;20202;-46
2023/06/23 05:39:15;;;;;;;21.13;14.40;;;16.20;99.90;;;;;;5075922;28;20608;-45
2023/06/23 05:41:41;;;;;;;19.70;14.80;;;16.30;99.90;;;;;;5075892;28;20266;-47
2023/06/23 05:44:06;;;;;;;23.80;16.33;;;16.30;99.90;;;;;;5075519;28;20227;-47
2023/06/23 05:46:35;;;;;;;23.83;14.97;;;16.50;99.90;;;;;;5075755;28;20270;-47
2023/06/23 05:49:08;;;;;;;21.60;15.13;;;16.50;99.90;;;;;;5075417;28;20190;-46
2023/06/23 05:51:34;;;;;;;20.13;16.13;;;16.50;99.90;;;;;;5075737;28;20168;-48
2023/06/23 05:54:05;;;;;;;22.40;16.07;;;16.60;99.90;;;;;;5075249;28;20218;-46
2023/06/23 05:56:33;;;;;;;25.20;16.23;;;16.70;99.90;;;;;;5075338;28;20182;-47
2023/06/23 05:59:02;;;;;;;23.80;15.73;;;16.70;99.90;;;;;;5075304;28;20183;-47
2023/06/23 06:01:30;;;;;;;21.33;14.47;;;16.80;99.90;;;;;;5075458;28;20190;-48
2023/06/23 06:04:05;;;;;;;24.07;15.40;;;16.90;99.90;;;;;;5075182;28;20217;-47
2023/06/23 06:06:35;;;;;;;21.93;15.80;;;17.00;99.90;;;;;;5075487;28;20171;-47
2023/06/23 06:09:03;;;;;;;21.87;15.87;;;17.10;99.90;;;;;;5075276;28;20179;-47
2023/06/23 06:11:31;;;;;;;23.13;15.63;;;17.10;99.90;;;;;;5074970;28;20668;-47
2023/06/23 06:13:58;;;;;;;20.97;15.03;;;17.20;99.90;;;;;;5056874;28;20333;-46
2023/06/23 06:16:24;;;;;;;24.30;16.57;;;17.30;99.90;;;;;;5075125;28;20167;-46
2023/06/23 06:18:52;;;;;;;26.17;17.03;;;17.40;99.90;;;;;;5074990;28;20190;-46
2023/06/23 06:21:19;;;;;;;20.87;15.07;;;17.50;99.90;;;;;;5074897;28;20262;-46
2023/06/23 06:23:46;;;;;;;25.53;16.83;;;17.60;99.90;;;;;;5074595;28;20187;-46
2023/06/23 06:26:14;;;;;;;23.07;16.40;;;17.60;99.90;;;;;;5074921;28;20186;-47
2023/06/23 06:28:42;;;;;;;19.63;14.93;;;17.70;99.90;;;;;;5075206;28;20573;-46
2023/06/23 06:31:09;;;;;;;24.03;15.30;;;17.80;99.90;;;;;;5074758;28;20179;-45
2023/06/23 06:33:37;;;;;;;18.83;14.53;;;17.90;99.90;;;;;;5074695;28;20176;-46
2023/06/23 06:36:06;;;;;;;22.40;14.83;;;17.90;99.90;;;;;;5074403;28;20739;-46
2023/06/23 06:38:35;;;;;;;23.30;16.20;;;17.90;99.90;;;;;;5074467;28;20246;-45
2023/06/23 06:41:07;;;;;;;23.63;16.13;;;18.00;99.90;;;;;;5074611;28;20187;-46
2023/06/23 06:43:34;;;;;;;24.30;16.27;;;18.00;99.90;;;;;;5074226;28;20241;-45
2023/06/23 06:46:00;;;;;;;22.27;16.10;;;18.10;99.90;;;;;;5074529;28;20180;-46
2023/06/23 06:48:28;;;;;;;21.67;16.87;;;18.20;99.90;;;;;;5074289;28;20179;-48
2023/06/23 06:50:55;;;;;;;23.20;16.00;;;18.30;99.90;;;;;;5074430;28;20241;-46
2023/06/23 06:53:22;;;;;;;19.80;15.07;;;18.30;99.90;;;;;;5074290;28;20178;-45
2023/06/23 06:55:48;;;;;;;21.90;16.20;;;18.40;99.90;;;;;;5074010;28;20195;-47
2023/06/23 06:58:15;;;;;;;20.80;16.40;;;18.60;99.90;;;;;;5074296;28;20245;-47
2023/06/23 07:00:43;;;;;;;19.70;15.07;;;18.70;99.90;;;;;;5073977;28;20179;-47
2023/06/23 07:03:12;;;;;;;20.57;14.80;;;18.80;99.90;;;;;;5073884;28;20643;-46
2023/06/23 07:05:38;;;;;;;21.30;14.90;;;19.00;99.90;;;;;;5074100;28;20203;-47
2023/06/23 07:08:05;;;;;;;18.37;14.57;;;19.30;99.90;;;;;;5073810;28;20189;-47
2023/06/23 07:10:35;;;;;;;18.63;14.70;;;19.40;99.90;;;;;;5073846;28;20183;-47
2023/06/23 07:13:01;;;;;;;18.93;14.47;;;19.50;99.90;;;;;;5074050;28;20336;-47
2023/06/23 07:15:27;;;;;;;19.27;13.63;;;19.60;99.90;;;;;;5055701;28;20217;-47
2023/06/23 07:17:53;;;;;;;21.90;14.50;;;19.70;99.90;;;;;;5073666;28;20258;-47
2023/06/23 07:20:19;;;;;;;18.47;12.60;;;19.70;99.90;;;;;;5073657;28;20171;-47
2023/06/23 07:22:45;;;;;;;18.73;13.47;;;19.70;99.90;;;;;;5073601;28;20696;-47
2023/06/23 07:25:10;;;;;;;16.20;14.17;;;19.70;99.90;;;;;;5073757;28;20199;-46
2023/06/23 07:27:36;;;;;;;16.40;13.73;;;19.80;99.90;;;;;;5073543;28;20644;-46
2023/06/23 07:30:04;;;;;;;17.03;12.60;;;19.80;99.90;;;;;;5073771;28;20241;-47
2023/06/23 07:32:29;;;;;;;17.13;12.40;;;19.90;99.90;;;;;;5073416;28;20194;-47
2023/06/23 07:34:55;;;;;;;16.20;12.23;;;20.00;99.90;;;;;;5072885;28;20204;-47
2023/06/23 07:37:21;;;;;;;14.13;11.57;;;20.20;99.90;;;;;;5073745;28;20504;-47
2023/06/23 07:39:46;;;;;;;16.93;11.17;;;20.30;99.90;;;;;;5073361;28;20184;-46
2023/06/23 07:42:12;;;;;;;14.37;11.97;;;20.40;99.90;;;;;;5073634;28;20231;-47
2023/06/23 07:44:38;;;;;;;13.67;11.50;;;20.50;99.90;;;;;;5073234;28;20196;-48
2023/06/23 07:47:04;;;;;;;15.70;11.77;;;20.50;99.90;;;;;;5073271;28;20179;-46
2023/06/23 07:49:30;;;;;;;15.43;12.90;;;20.70;99.90;;;;;;5073521;28;20191;-47
2023/06/23 07:52:00;;;;;;;13.97;12.03;;;20.90;99.90;;;;;;5073286;28;20195;-47
2023/06/23 07:54:29;;;;;;;14.60;11.07;;;21.10;99.90;;;;;;5073009;28;20215;-47
2023/06/23 07:56:58;;;;;;;12.87;11.23;;;21.20;99.90;;;;;;5073466;28;20183;-47
2023/06/23 07:59:25;;;;;;;15.00;11.83;;;21.30;99.90;;;;;;5073158;28;20180;-47
2023/06/23 08:01:51;;;;;;;14.60;10.50;;;21.30;99.90;;;;;;5073400;28;20237;-47
2023/06/23 08:04:17;;;;;;;11.60;10.20;;;21.20;99.90;;;;;;5073109;28;20219;-47
2023/06/23 08:06:43;;;;;;;10.53;9.43;;;21.40;99.90;;;;;;5073703;28;20687;-46
2023/06/23 08:09:09;;;;;;;12.27;10.40;;;21.50;99.90;;;;;;5073179;28;20178;-47
2023/06/23 08:11:34;;;;;;;14.47;9.30;;;21.60;99.90;;;;;;5073876;28;20211;-47
2023/06/23 08:14:00;;;;;;;9.40;8.40;;;21.50;99.90;;;;;;5072937;28;20199;-47
2023/06/23 08:16:26;;;;;;;11.20;9.97;;;21.50;99.90;;;;;;5073244;28;20176;-48
2023/06/23 08:18:52;;;;;;;11.27;9.27;;;21.50;99.90;;;;;;5073008;28;20172;-48
2023/06/23 08:21:18;;;;;;;12.17;8.07;;;21.50;99.90;;;;;;5073493;28;20248;-46
2023/06/23 08:23:47;;;;;;;14.30;8.17;;;21.60;99.90;;;;;;5073295;28;20183;-47
2023/06/23 08:26:13;;;;;;;9.83;8.77;;;21.60;99.90;;;;;;5073227;28;20184;-47
2023/06/23 08:28:39;;;;;;;10.93;8.87;;;21.60;99.90;;;;;;5073260;28;20542;-48
2023/06/23 08:31:05;;;;;;;12.73;8.07;;;21.60;99.90;;;;;;5073568;28;20179;-47
2023/06/23 08:33:34;;;;;;;13.47;8.97;;;21.70;99.90;;;;;;5072821;28;20176;-48
2023/06/23 08:36:01;;;;;;;8.20;7.23;;;21.70;99.90;;;;;;5072709;28;20206;-46
2023/06/23 08:38:26;;;;;;;11.13;7.30;;;21.70;99.90;;;;;;5072995;28;20180;-47
2023/06/23 08:40:53;;;;;;;8.87;7.50;;;21.90;99.90;;;;;;5072748;28;20194;-47
2023/06/23 08:43:26;;;;;;;9.50;7.10;;;22.10;99.90;;;;;;5072728;28;20175;-48
2023/06/23 08:45:59;;;;;;;9.97;7.47;;;22.40;99.90;;;;;;5072995;28;20204;-48
2023/06/23 08:48:29;;;;;;;11.33;7.93;;;22.40;99.90;;;;;;5076574;28;20245;-48
2023/06/23 08:51:02;;;;;;;9.77;6.93;;;22.30;99.90;;;;;;5076493;28;20176;-47
2023/06/23 08:53:28;;;;;;;8.20;5.53;;;22.30;99.90;;;;;;5076377;28;20176;-48
2023/06/23 08:55:55;;;;;;;6.10;5.50;;;22.30;99.90;;;;;;5076476;28;20219;-48
2023/06/23 08:58:22;;;;;;;8.10;5.57;;;22.30;99.90;;;;;;5076917;28;20172;-48
2023/06/23 09:00:50;;;;;;;11.03;7.80;;;22.40;99.90;;;;;;5076260;28;20537;-46
2023/06/23 09:03:15;;;;;;;8.00;7.27;;;22.60;99.90;;;;;;5058577;28;20176;-47
2023/06/23 09:05:41;;;;;;;9.77;6.80;;;22.70;99.90;;;;;;5076163;28;20211;-47
2023/06/23 09:08:08;;;;;;;9.00;6.37;;;22.90;99.90;;;;;;5076658;28;20197;-47
2023/06/23 09:10:33;;;;;;;7.03;5.60;;;23.10;99.90;;;;;;5076434;28;20195;-49
2023/06/23 09:13:29;;;;;;;6.73;5.97;;;23.20;99.90;;;;;;5076568;28;20651;-48
2023/06/23 09:15:55;;;;;;;8.00;5.77;;;23.10;99.90;;;;;;5076141;28;20207;-48
2023/06/23 09:18:20;;;;;;;6.97;6.17;;;23.10;99.90;;;;;;5076036;28;20175;-49
2023/06/23 09:20:49;;;;;;;8.07;7.10;;;23.10;99.90;;;;;;5075847;28;20191;-48
2023/06/23 09:23:16;;;;;;;7.70;6.17;;;23.10;99.90;;;;;;5075902;28;20179;-49
2023/06/23 09:25:49;;;;;;;7.47;6.03;;;23.10;99.90;;;;;;5075740;28;20735;-48
2023/06/23 09:28:26;;;;;;;9.07;6.17;;;23.10;99.90;;;;;;5076059;28;20168;-48
2023/06/23 09:30:53;;;;;;;7.53;6.37;;;23.10;99.90;;;;;;5076127;28;20238;-47
2023/06/23 09:33:20;;;;;;;7.93;5.80;;;23.00;99.90;;;;;;5075879;28;20203;-48
2023/06/23 09:35:50;;;;;;;7.90;4.90;;;23.00;99.90;;;;;;5075659;28;20195;-48
2023/06/23 09:38:24;;;;;;;7.63;5.53;;;23.10;99.90;;;;;;5075623;28;20171;-48
2023/06/23 09:41:18;;;;;;;8.17;5.23;;;23.20;99.90;;;;;;5075808;28;20171;-49
2023/06/23 09:43:46;;;;;;;6.60;5.00;;;23.50;99.90;;;;;;5054523;28;20194;-49
2023/06/23 09:46:15;;;;;;;7.43;5.07;;;23.60;99.90;;;;;;5076096;28;20582;-48
2023/06/23 09:48:45;;;;;;;6.63;4.70;;;23.90;99.90;;;;;;5075812;28;20262;-49
2023/06/23 09:51:12;;;;;;;8.13;4.63;;;24.00;99.90;;;;;;5075453;28;20181;-49
2023/06/23 09:53:39;;;;;;;6.40;4.70;;;24.00;99.90;;;;;;5075472;28;20184;-49
2023/06/23 09:56:07;;;;;;;5.10;3.80;;;24.10;99.90;;;;;;5075500;28;20243;-49
2023/06/23 09:58:36;;;;;;;6.17;4.97;;;24.10;99.90;;;;;;5074599;28;20183;-49
2023/06/23 10:01:04;;;;;;;5.23;4.27;;;24.30;99.90;;;;;;5075403;28;20196;-49
2023/06/23 10:03:31;;;;;;;5.73;4.07;;;24.40;99.90;;;;;;5074975;28;20175;-49
2023/06/23 10:05:58;;;;;;;3.87;3.50;;;24.50;99.90;;;;;;5075231;28;20596;-48
2023/06/23 10:08:27;;;;;;;4.63;4.13;;;24.60;99.90;;;;;;5075020;28;20172;-48
2023/06/23 10:10:53;;;;;;;5.00;4.07;;;24.60;99.90;;;;;;5075340;28;20176;-50
2023/06/23 10:13:20;;;;;;;4.77;4.13;;;24.80;99.90;;;;;;5074936;28;20289;-50
2023/06/23 10:15:46;;;;;;;7.40;4.80;;;24.80;99.90;;;;;;5074689;28;20643;-49
2023/06/23 10:18:13;;;;;;;5.30;4.80;;;24.80;99.90;;;;;;5074809;28;20271;-49
2023/06/23 10:20:39;;;;;;;7.20;4.50;;;24.80;99.90;;;;;;5074775;28;20225;-49
2023/06/23 10:23:06;;;;;;;8.07;4.40;;;24.70;99.90;;;;;;5075013;28;20179;-50
2023/06/23 10:25:35;;;;;;;6.87;4.20;;;24.70;99.90;;;;;;5074610;28;20245;-48
2023/06/23 10:28:07;;;;;;;4.60;3.70;;;24.80;99.90;;;;;;5074653;28;20175;-50
2023/06/23 10:30:32;;;;;;;8.00;4.80;;;24.70;99.90;;;;;;5075130;28;20156;-49
2023/06/23 10:32:59;;;;;;;5.72;5.10;;;24.60;99.90;;;;;;5074585;28;20587;-48
2023/06/23 10:35:25;;;;;;;4.82;4.22;;;24.60;99.90;;;;;;5074892;28;20210;-49
2023/06/23 10:38:06;;;;;;;5.28;4.60;;;24.60;99.90;;;;;;5074667;28;20225;-49
2023/06/23 10:40:45;;;;;;;9.30;4.65;;;24.60;99.90;;;;;;5074762;28;20242;-49
2023/06/23 10:43:12;;;;;;;5.82;4.00;;;24.70;99.90;;;;;;5074474;28;20259;-49
2023/06/23 10:45:38;;;;;;;6.57;4.78;;;24.70;99.90;;;;;;5074359;28;20191;-49
2023/06/23 10:48:04;;;;;;;8.25;4.70;;;24.80;99.90;;;;;;5074440;28;20557;-49
2023/06/23 10:50:30;;;;;;;5.20;4.38;;;24.90;99.90;;;;;;5074150;28;20184;-50
2023/06/23 10:53:08;;;;;;;6.78;3.83;;;25.10;99.90;;;;;;5074183;28;20180;-50
2023/06/23 10:55:35;;;;;;;5.28;4.78;;;25.30;99.90;;;;;;5074761;28;20214;-49
2023/06/23 10:58:11;;;;;;;8.90;4.90;;;25.30;99.90;;;;;;5074265;28;20179;-49
2023/06/23 11:00:37;;;;;;;6.95;5.18;;;25.20;99.90;;;;;;5074428;28;20167;-50
2023/06/23 11:03:10;;;;;;;5.72;4.60;;;25.30;99.90;;;;;;5074036;28;20172;-50
2023/06/23 11:05:55;;;;;;;5.85;4.78;;;25.30;99.90;;;;;;5074206;28;20199;-50
2023/06/23 11:08:28;;;;;;;4.63;4.22;;;25.40;99.90;;;;;;5074259;28;20187;-50
2023/06/23 11:11:00;;;;;;;5.28;4.45;;;25.60;99.90;;;;;;5055082;28;20632;-49
2023/06/23 11:13:42;;;;;;;6.13;3.92;;;25.80;99.90;;;;;;5074084;28;20183;-45
2023/06/23 11:16:13;;;;;;;4.93;4.40;;;25.80;99.90;;;;;;5073662;28;20203;-45
2023/06/23 11:18:51;;;;;;;4.60;3.95;;;26.00;99.90;;;;;;5073994;28;20154;-45
2023/06/23 11:21:29;;;;;;;4.22;3.83;;;26.10;99.90;;;;;;5073665;28;20574;-45
2023/06/23 11:24:20;;;;;;;5.72;4.03;;;26.20;99.90;;;;;;5073694;28;20274;-43
2023/06/23 11:26:49;;;;;;;6.35;4.40;;;26.30;99.90;;;;;;5073891;28;20168;-46
2023/06/23 11:29:18;;;;;;;5.90;4.30;;;26.30;99.90;;;;;;5073825;28;20176;-46
2023/06/23 11:32:06;;;;;;;8.07;4.60;;;26.50;99.90;;;;;;5073545;28;20251;-46
2023/06/23 11:34:49;;;;;;;5.57;3.75;;;26.40;99.90;;;;;;5073230;28;20211;-46
2023/06/23 11:37:14;;;;;;;5.72;3.97;;;26.40;99.90;;;;;;5073770;28;20156;-45
2023/06/23 11:39:41;;;;;;;5.85;3.75;;;26.30;99.90;;;;;;5073421;28;20194;-44
2023/06/23 11:42:06;;;;;;;5.03;3.60;;;26.20;99.90;;;;;;5073959;28;20160;-45
2023/06/23 11:44:32;;;;;;;4.82;3.70;;;26.30;99.90;;;;;;5073587;28;20555;-44
2023/06/23 11:46:57;;;;;;;7.35;3.90;;;26.30;99.90;;;;;;5073305;28;20186;-45
2023/06/23 11:49:24;;;;;;;4.45;3.95;;;26.50;99.90;;;;;;5073383;28;20180;-43
2023/06/23 11:51:50;;;;;;;5.95;3.22;;;26.70;99.90;;;;;;5073564;28;20189;-44
2023/06/23 11:54:16;;;;;;;6.43;3.75;;;26.70;99.90;;;;;;5054850;28;20310;-44
2023/06/23 11:56:42;;;;;;;6.20;3.28;;;26.70;99.90;;;;;;5073496;28;20620;-44
2023/06/23 11:59:11;;;;;;;3.40;3.10;;;26.70;99.90;;;;;;5073157;28;20184;-43
2023/06/23 12:01:36;;;;;;;5.05;3.67;;;26.60;99.90;;;;;;5073454;28;20179;-44
2023/06/23 12:04:05;;;;;;;4.03;3.08;;;26.70;99.90;;;;;;5055139;28;20192;-45
2023/06/23 12:06:35;;;;;;;4.72;3.40;;;26.80;99.90;;;;;;5073419;28;20179;-46
2023/06/23 12:09:02;;;;;;;4.65;3.55;;;26.90;99.90;;;;;;5073100;28;20620;-45
2023/06/23 12:11:29;;;;;;;4.00;3.28;;;26.80;99.90;;;;;;5073374;28;20190;-44
2023/06/23 12:13:57;;;;;;;3.60;3.20;;;26.70;99.90;;;;;;5073254;28;20286;-46
2023/06/23 12:16:23;;;;;;;3.10;2.80;;;26.70;99.90;;;;;;5073090;28;20648;-45
2023/06/23 12:18:50;;;;;;;3.00;2.70;;;26.90;99.90;;;;;;5072999;28;20191;-45
2023/06/23 12:21:17;;;;;;;3.10;2.78;;;27.00;99.90;;;;;;5073222;28;20663;-46
2023/06/23 12:23:43;;;;;;;4.97;2.85;;;27.10;99.90;;;;;;5077000;28;20648;-44
2023/06/23 12:26:09;;;;;;;3.92;2.95;;;27.10;99.90;;;;;;5077259;28;20179;-46
2023/06/23 12:28:35;;;;;;;3.53;3.20;;;27.10;99.90;;;;;;5077246;28;20636;-44
2023/06/23 12:31:00;;;;;;;3.65;3.00;;;27.00;99.90;;;;;;5077170;28;20172;-44
2023/06/23 12:33:30;;;;;;;4.03;3.17;;;27.00;99.90;;;;;;5077090;28;20175;-45
2023/06/23 12:36:00;;;;;;;2.97;2.63;;;27.10;99.90;;;;;;5076682;28;20698;-44
2023/06/23 12:38:26;;;;;;;4.65;2.83;;;27.20;99.90;;;;;;5077087;28;20179;-45
2023/06/23 12:40:52;;;;;;;3.03;2.60;;;27.30;99.90;;;;;;5076975;28;20274;-45
2023/06/23 12:43:19;;;;;;;3.35;3.05;;;27.50;99.90;;;;;;5076709;28;20179;-44
2023/06/23 12:45:49;;;;;;;3.03;2.72;;;27.50;99.90;;;;;;5076623;28;20245;-45
2023/06/23 12:48:15;;;;;;;4.18;2.90;;;27.50;99.90;;;;;;5076465;28;20585;-45